Time;durP1;ratioP1;P1;durP2;ratioP2;P2;SDS_P1;SDS_P2;PMS_P1;PMS_P2;Temp;Humidity;BMP_temperature;BMP_pressure;BME280_temperature;BME280_humidity;BME280_pressure;Samples;Min_cycle;Max_cycle;Signal;HPM_P1;HPM_P2
2022/01/31 00:01:44;;;;;;;4.72;1.95;;;4.90;99.90;;;;;;4441780;32;20088;-70
2022/01/31 00:04:09;;;;;;;4.03;1.80;;;4.90;99.90;;;;;;4441145;32;20082;-69
2022/01/31 00:06:35;;;;;;;2.55;1.42;;;4.90;99.90;;;;;;4440507;32;20141;-70
2022/01/31 00:09:00;;;;;;;1.65;0.98;;;4.90;99.90;;;;;;4440948;32;20069;-70
2022/01/31 00:11:26;;;;;;;3.72;1.90;;;4.80;99.90;;;;;;4440972;32;20459;-71
2022/01/31 00:14:01;;;;;;;0.70;0.70;;;4.80;99.90;;;;;;4440354;32;20072;-71
2022/01/31 00:16:32;;;;;;;2.17;0.90;;;4.70;99.90;;;;;;4443994;32;20096;-70
2022/01/31 00:18:57;;;;;;;0.70;0.70;;;4.70;99.90;;;;;;4442916;32;20525;-70
2022/01/31 00:21:23;;;;;;;0.57;0.57;;;4.80;99.90;;;;;;4444287;32;20081;-70
2022/01/31 00:23:48;;;;;;;0.60;0.60;;;4.80;99.90;;;;;;4444314;32;20500;-70
2022/01/31 00:26:14;;;;;;;8.25;2.85;;;4.90;99.90;;;;;;4442110;32;20092;-70
2022/01/31 00:28:39;;;;;;;2.15;1.05;;;4.90;99.90;;;;;;4443628;32;20069;-70
2022/01/31 00:31:05;;;;;;;3.10;2.00;;;4.80;99.90;;;;;;4443223;32;20540;-70
2022/01/31 00:33:30;;;;;;;7.80;2.25;;;4.80;99.90;;;;;;4442737;32;20155;-70
2022/01/31 00:35:55;;;;;;;1.37;1.15;;;4.80;99.90;;;;;;4444518;32;20475;-70
2022/01/31 00:38:21;;;;;;;38.65;1.35;;;4.70;99.90;;;;;;4440583;32;20069;-70
2022/01/31 00:40:46;;;;;;;2.85;1.33;;;4.70;99.90;;;;;;4442807;32;20147;-69
2022/01/31 00:43:14;;;;;;;2.05;1.10;;;4.70;99.90;;;;;;4444489;32;20106;-70
2022/01/31 00:45:58;;;;;;;2.20;1.30;;;4.60;99.90;;;;;;4444992;32;20122;-70
2022/01/31 00:48:26;;;;;;;15.90;0.98;;;4.60;99.90;;;;;;4443502;32;20073;-69
2022/01/31 00:50:51;;;;;;;0.40;0.40;;;4.60;99.90;;;;;;4443480;32;20096;-69
2022/01/31 00:53:17;;;;;;;0.47;0.47;;;4.60;99.90;;;;;;4442007;32;20129;-70
2022/01/31 00:55:43;;;;;;;0.47;0.47;;;4.60;99.90;;;;;;4441519;32;20512;-69
2022/01/31 00:58:08;;;;;;;4.25;1.52;;;4.60;99.90;;;;;;4442356;32;20084;-70
2022/01/31 01:00:34;;;;;;;1.98;1.55;;;4.60;99.90;;;;;;4440054;32;20491;-70
2022/01/31 01:02:59;;;;;;;0.80;0.73;;;4.70;99.90;;;;;;4441811;32;20089;-70
2022/01/31 01:05:25;;;;;;;22.83;1.85;;;4.60;99.90;;;;;;4443211;32;20077;-70
2022/01/31 01:07:50;;;;;;;1.10;0.98;;;4.60;99.90;;;;;;4440603;32;20061;-70
2022/01/31 01:10:18;;;;;;;5.28;0.95;;;4.60;99.90;;;;;;4444651;32;20069;-70
2022/01/31 01:12:45;;;;;;;0.40;0.40;;;4.50;99.90;;;;;;4442671;32;20080;-70
2022/01/31 01:15:11;;;;;;;1.15;0.85;;;4.40;99.90;;;;;;4443136;32;20607;-69
2022/01/31 01:17:36;;;;;;;1.00;0.95;;;4.40;99.90;;;;;;4442596;32;20077;-69
2022/01/31 01:20:03;;;;;;;0.32;0.32;;;4.40;99.90;;;;;;4443299;32;20081;-70
2022/01/31 01:22:29;;;;;;;1.23;0.75;;;4.30;99.90;;;;;;4442004;32;20073;-69
2022/01/31 01:24:54;;;;;;;0.50;0.50;;;4.30;99.90;;;;;;4441291;32;20057;-69
2022/01/31 01:27:21;;;;;;;4.28;2.30;;;4.30;99.90;;;;;;4441905;32;20115;-70
2022/01/31 01:29:47;;;;;;;3.35;1.60;;;4.40;99.90;;;;;;4442663;32;20088;-70
2022/01/31 01:32:13;;;;;;;5.40;1.87;;;4.40;99.90;;;;;;4442518;32;20475;-70
2022/01/31 01:34:39;;;;;;;0.30;0.30;;;4.50;99.90;;;;;;4442305;32;20077;-70
2022/01/31 01:37:04;;;;;;;1.35;1.20;;;4.50;99.90;;;;;;4442444;32;20132;-69
2022/01/31 01:39:31;;;;;;;0.50;0.50;;;4.60;99.90;;;;;;4442231;32;20501;-69
2022/01/31 01:41:56;;;;;;;3.35;1.33;;;4.60;99.90;;;;;;4442009;32;20081;-70
2022/01/31 01:44:51;;;;;;;9.05;1.65;;;4.50;99.90;;;;;;4444613;32;20073;-70
2022/01/31 01:47:19;;;;;;;2.20;0.75;;;4.50;99.90;;;;;;4441679;32;20120;-70
2022/01/31 01:49:46;;;;;;;3.30;1.60;;;4.50;99.90;;;;;;4442792;32;20076;-70
2022/01/31 01:52:12;;;;;;;11.18;1.83;;;4.50;99.90;;;;;;4438549;32;20072;-70
2022/01/31 01:54:38;;;;;;;1.02;0.95;;;4.60;99.90;;;;;;4441761;32;20605;-70
2022/01/31 01:57:04;;;;;;;5.03;1.10;;;4.60;99.90;;;;;;4441697;32;20070;-69
2022/01/31 01:59:35;;;;;;;1.35;1.25;;;4.50;99.90;;;;;;4440926;32;20085;-69
2022/01/31 02:02:02;;;;;;;;;;;4.40;99.90;;;;;;4443184;32;20461;-70
2022/01/31 02:04:28;;;;;;;0.70;0.70;;;4.50;99.90;;;;;;4441659;32;20373;-69
2022/01/31 02:06:53;;;;;;;5.35;1.70;;;4.50;99.90;;;;;;4441784;32;20085;-69
2022/01/31 02:09:22;;;;;;;1.37;1.02;;;4.60;99.90;;;;;;4442506;32;20080;-69
2022/01/31 02:11:49;;;;;;;2.30;0.77;;;4.60;99.90;;;;;;4442161;32;20057;-70
2022/01/31 02:14:15;;;;;;;2.62;2.00;;;4.60;99.90;;;;;;4441521;32;20105;-70
2022/01/31 02:16:40;;;;;;;6.43;2.35;;;4.50;99.90;;;;;;4441436;32;20064;-69
2022/01/31 02:19:07;;;;;;;3.70;0.93;;;4.50;99.90;;;;;;4442728;32;20081;-70
2022/01/31 02:21:33;;;;;;;0.52;0.52;;;4.50;99.90;;;;;;4440752;32;20069;-69
2022/01/31 02:23:58;;;;;;;0.47;0.47;;;4.50;99.90;;;;;;4441930;32;20080;-70
2022/01/31 02:26:24;;;;;;;0.43;0.43;;;4.50;99.90;;;;;;4442284;32;20614;-70
2022/01/31 02:28:50;;;;;;;2.10;1.35;;;4.40;99.90;;;;;;4442134;32;20548;-70
2022/01/31 02:31:15;;;;;;;1.35;1.25;;;4.40;99.90;;;;;;4441757;32;20130;-70
2022/01/31 02:33:41;;;;;;;5.97;1.90;;;4.40;99.90;;;;;;4439304;32;20126;-69
2022/01/31 02:36:07;;;;;;;0.77;0.77;;;4.50;99.90;;;;;;4441339;32;20174;-70
2022/01/31 02:38:52;;;;;;;1.70;1.20;;;4.50;99.90;;;;;;4440328;32;20443;-69
2022/01/31 02:41:18;;;;;;;0.70;0.70;;;4.50;99.90;;;;;;4438872;32;20084;-69
2022/01/31 02:43:49;;;;;;;4.68;1.40;;;4.40;99.90;;;;;;4441983;32;20100;-69
2022/01/31 02:46:15;;;;;;;0.80;0.60;;;4.40;99.90;;;;;;4442574;32;20089;-70
2022/01/31 02:48:40;;;;;;;0.50;0.50;;;4.40;99.90;;;;;;4441516;32;20131;-69
2022/01/31 02:51:10;;;;;;;1.95;0.98;;;4.40;99.90;;;;;;4442539;32;20069;-69
2022/01/31 02:53:40;;;;;;;33.85;1.37;;;4.40;99.90;;;;;;4439958;32;20088;-69
2022/01/31 02:56:06;;;;;;;;;;;4.40;99.90;;;;;;4441686;32;20138;-70
2022/01/31 02:58:32;;;;;;;0.32;0.32;;;4.40;99.90;;;;;;4441739;32;20332;-70
2022/01/31 03:00:58;;;;;;;5.40;1.48;;;4.40;99.90;;;;;;4442206;32;20073;-70
2022/01/31 03:03:24;;;;;;;4.30;1.65;;;4.40;99.90;;;;;;4441466;32;20061;-70
2022/01/31 03:05:49;;;;;;;6.78;2.30;;;4.30;99.90;;;;;;4443164;32;20089;-70
2022/01/31 03:08:15;;;;;;;2.70;1.35;;;4.30;99.90;;;;;;4441937;32;20417;-70
2022/01/31 03:10:41;;;;;;;0.82;0.52;;;4.30;99.90;;;;;;4442075;32;20065;-70
2022/01/31 03:13:06;;;;;;;0.77;0.77;;;4.20;99.90;;;;;;4442082;32;20115;-70
2022/01/31 03:15:33;;;;;;;1.02;0.55;;;4.30;99.90;;;;;;4443068;32;20463;-69
2022/01/31 03:17:59;;;;;;;2.95;1.85;;;4.30;99.90;;;;;;4441408;32;20081;-70
2022/01/31 03:20:25;;;;;;;17.17;2.65;;;4.30;99.90;;;;;;4441876;32;20447;-70
2022/01/31 03:22:51;;;;;;;0.88;0.88;;;4.30;99.90;;;;;;4439850;32;20064;-70
2022/01/31 03:25:17;;;;;;;2.53;1.75;;;4.20;99.90;;;;;;4439699;32;20511;-70
2022/01/31 03:27:45;;;;;;;4.50;1.17;;;4.30;99.90;;;;;;4441460;32;20545;-70
2022/01/31 03:30:14;;;;;;;3.40;1.48;;;4.30;99.90;;;;;;4442600;32;20078;-70
2022/01/31 03:32:40;;;;;;;0.40;0.40;;;4.30;99.90;;;;;;4443290;32;20085;-69
2022/01/31 03:35:07;;;;;;;0.40;0.40;;;4.20;99.90;;;;;;4440708;32;20156;-70
2022/01/31 03:37:33;;;;;;;2.53;1.58;;;4.20;99.90;;;;;;4440766;32;20092;-70
2022/01/31 03:39:58;;;;;;;0.30;0.30;;;4.30;99.90;;;;;;4441178;32;20070;-69
2022/01/31 03:42:24;;;;;;;0.80;0.75;;;4.30;99.90;;;;;;4442504;32;20141;-69
2022/01/31 03:44:50;;;;;;;0.70;0.70;;;4.20;99.90;;;;;;4442593;32;20069;-69
2022/01/31 03:47:17;;;;;;;0.40;0.40;;;4.20;99.90;;;;;;4442711;32;20604;-69
2022/01/31 03:49:42;;;;;;;6.05;1.67;;;4.20;99.90;;;;;;4443721;32;20167;-70
2022/01/31 03:52:08;;;;;;;0.60;0.60;;;4.20;99.90;;;;;;4442038;32;20568;-69
2022/01/31 03:54:34;;;;;;;5.05;1.42;;;4.20;99.90;;;;;;4441428;32;20081;-70
2022/01/31 03:57:00;;;;;;;0.37;0.37;;;4.20;99.90;;;;;;4444201;32;20100;-70
2022/01/31 03:59:26;;;;;;;0.85;0.85;;;4.20;99.90;;;;;;4442619;32;20559;-69
2022/01/31 04:01:51;;;;;;;3.72;1.58;;;4.10;99.90;;;;;;4444634;32;20073;-69
2022/01/31 04:04:17;;;;;;;0.50;0.50;;;4.20;99.90;;;;;;4444428;32;20450;-69
2022/01/31 04:06:43;;;;;;;1.33;1.23;;;4.20;99.90;;;;;;4443180;32;20076;-69
2022/01/31 04:09:08;;;;;;;0.50;0.50;;;4.20;99.90;;;;;;4445302;32;20062;-70
2022/01/31 04:11:34;;;;;;;1.20;0.80;;;4.20;99.90;;;;;;4444284;32;20100;-69
2022/01/31 04:13:59;;;;;;;6.60;2.35;;;4.20;99.90;;;;;;4443946;32;20080;-69
2022/01/31 04:16:25;;;;;;;1.87;1.23;;;4.20;99.90;;;;;;4443837;32;20403;-69
2022/01/31 04:18:51;;;;;;;3.33;2.25;;;4.20;99.90;;;;;;4443387;32;20138;-70
2022/01/31 04:21:16;;;;;;;2.17;1.58;;;4.30;99.90;;;;;;4444800;32;20097;-70
2022/01/31 04:23:42;;;;;;;0.50;0.50;;;4.30;99.90;;;;;;4442670;32;20065;-71
2022/01/31 04:26:12;;;;;;;0.60;0.60;;;4.30;99.90;;;;;;4442142;32;20080;-70
2022/01/31 04:28:44;;;;;;;0.40;0.40;;;4.20;99.90;;;;;;4441786;32;20086;-70
2022/01/31 04:31:44;;;;;;;0.40;0.40;;;4.30;99.90;;;;;;4444167;32;20072;-70
2022/01/31 04:33:55;;;;;;;18.52;1.58;;;4.30;99.90;;;;;;4435140;32;85944;-69
2022/01/31 04:36:21;;;;;;;0.95;0.75;;;4.20;99.90;;;;;;4442889;32;20053;-70
2022/01/31 04:38:48;;;;;;;0.40;0.40;;;4.10;99.90;;;;;;4441441;32;20061;-70
2022/01/31 04:41:14;;;;;;;5.87;2.00;;;4.10;99.90;;;;;;4441434;32;20053;-70
2022/01/31 04:43:40;;;;;;;23.77;2.87;;;4.20;99.90;;;;;;4444128;32;20127;-70
2022/01/31 04:46:08;;;;;;;2.53;1.55;;;4.10;99.90;;;;;;4444386;32;20061;-70
2022/01/31 04:48:34;;;;;;;0.43;0.43;;;4.10;99.90;;;;;;4444279;32;20065;-70
2022/01/31 04:51:00;;;;;;;1.40;1.30;;;4.10;99.90;;;;;;4445632;32;20402;-69
2022/01/31 04:53:27;;;;;;;7.97;0.93;;;4.10;99.90;;;;;;4443352;32;21332;-69
2022/01/31 04:55:53;;;;;;;0.30;0.30;;;4.10;99.90;;;;;;4443768;32;20521;-69
2022/01/31 04:58:22;;;;;;;0.30;0.30;;;4.10;99.90;;;;;;4441720;32;20080;-70
2022/01/31 05:00:47;;;;;;;0.98;0.98;;;4.10;99.90;;;;;;4441125;32;20097;-70
2022/01/31 05:03:16;;;;;;;3.00;1.77;;;4.20;99.90;;;;;;4443359;32;20077;-69
2022/01/31 05:05:42;;;;;;;3.83;1.70;;;4.10;99.90;;;;;;4442495;32;20077;-70
2022/01/31 05:08:08;;;;;;;1.30;1.23;;;4.20;99.90;;;;;;4444000;32;20060;-69
2022/01/31 05:10:35;;;;;;;2.87;2.00;;;4.10;99.90;;;;;;4444673;32;20140;-69
2022/01/31 05:13:01;;;;;;;0.32;0.32;;;4.10;99.90;;;;;;4442967;32;20069;-70
2022/01/31 05:15:27;;;;;;;3.62;1.05;;;4.20;99.90;;;;;;4443283;32;20094;-70
2022/01/31 05:17:53;;;;;;;1.58;1.48;;;4.10;99.90;;;;;;4444567;32;20410;-69
2022/01/31 05:20:19;;;;;;;2.75;1.48;;;4.10;99.90;;;;;;4443052;32;20069;-70
2022/01/31 05:22:44;;;;;;;1.83;0.82;;;4.10;99.90;;;;;;4442693;32;20105;-70
2022/01/31 05:25:10;;;;;;;1.95;0.77;;;4.10;99.90;;;;;;4441740;32;20132;-69
2022/01/31 05:27:36;;;;;;;0.50;0.50;;;4.00;99.90;;;;;;4441602;32;20402;-70
2022/01/31 05:30:04;;;;;;;1.00;1.00;;;3.90;99.90;;;;;;4443773;32;20068;-70
2022/01/31 05:32:29;;;;;;;2.03;1.45;;;3.80;99.90;;;;;;4442924;32;20119;-69
2022/01/31 05:34:55;;;;;;;2.92;1.60;;;3.90;99.90;;;;;;4443124;32;20070;-69
2022/01/31 05:37:20;;;;;;;0.88;0.88;;;3.90;99.90;;;;;;4442204;32;20061;-69
2022/01/31 05:39:46;;;;;;;3.05;1.75;;;3.80;99.90;;;;;;4441411;32;20085;-69
2022/01/31 05:42:12;;;;;;;1.70;1.12;;;3.80;99.90;;;;;;4442691;32;20057;-70
2022/01/31 05:44:38;;;;;;;1.12;0.70;;;3.90;99.90;;;;;;4442124;32;20061;-70
2022/01/31 05:47:04;;;;;;;19.75;1.77;;;3.90;99.90;;;;;;4442475;32;20548;-69
2022/01/31 05:49:29;;;;;;;3.30;0.95;;;4.00;99.90;;;;;;4445523;32;20065;-69
2022/01/31 05:52:04;;;;;;;0.60;0.60;;;4.00;99.90;;;;;;4442865;32;20061;-69
2022/01/31 05:54:32;;;;;;;26.40;2.08;;;3.90;99.90;;;;;;4442616;32;20517;-69
2022/01/31 05:56:59;;;;;;;0.40;0.40;;;3.90;99.90;;;;;;4440850;32;20060;-70
2022/01/31 05:59:25;;;;;;;6.50;1.85;;;3.90;99.90;;;;;;4440697;32;20094;-70
2022/01/31 06:01:51;;;;;;;1.25;1.15;;;4.00;99.90;;;;;;4443031;32;20057;-69
2022/01/31 06:04:17;;;;;;;9.63;1.90;;;3.90;99.90;;;;;;4442961;32;20081;-69
2022/01/31 06:06:42;;;;;;;23.75;2.50;;;3.80;99.90;;;;;;4442788;32;20824;-70
2022/01/31 06:09:08;;;;;;;0.62;0.62;;;3.70;99.90;;;;;;4444071;32;20080;-70
2022/01/31 06:11:34;;;;;;;29.70;1.05;;;3.60;99.90;;;;;;4440778;32;20081;-69
2022/01/31 06:14:01;;;;;;;1.05;0.60;;;3.60;99.90;;;;;;4442986;32;20061;-69
2022/01/31 06:16:28;;;;;;;3.37;1.10;;;3.60;99.90;;;;;;4442891;32;20085;-70
2022/01/31 06:18:54;;;;;;;0.40;0.40;;;3.50;99.90;;;;;;4438931;32;20072;-69
2022/01/31 06:21:19;;;;;;;2.95;0.93;;;3.50;99.90;;;;;;4442651;32;20097;-70
2022/01/31 06:23:45;;;;;;;1.17;1.08;;;3.60;99.90;;;;;;4443879;32;20082;-70
2022/01/31 06:26:11;;;;;;;3.47;1.98;;;3.70;99.90;;;;;;4439882;32;20084;-69
2022/01/31 06:28:36;;;;;;;1.35;1.02;;;3.70;99.90;;;;;;4440928;32;20061;-70
2022/01/31 06:31:02;;;;;;;1.30;1.20;;;3.60;99.90;;;;;;4441106;32;20089;-69
2022/01/31 06:33:28;;;;;;;0.40;0.40;;;3.50;99.90;;;;;;4442042;32;20116;-69
2022/01/31 06:35:53;;;;;;;6.95;3.20;;;3.40;99.90;;;;;;4442635;32;20418;-68
2022/01/31 06:38:21;;;;;;;3.12;1.27;;;3.50;99.90;;;;;;4443084;32;20084;-71
2022/01/31 06:40:47;;;;;;;2.75;1.27;;;3.60;99.90;;;;;;4443066;32;20064;-72
2022/01/31 06:43:12;;;;;;;0.93;0.93;;;3.60;99.90;;;;;;4441922;32;20081;-70
